Time;durP1;ratioP1;P1;durP2;ratioP2;P2;SDS_P1;SDS_P2;PMS_P1;PMS_P2;Temp;Humidity;BMP_temperature;BMP_pressure;BME280_temperature;BME280_humidity;BME280_pressure;Samples;Min_cycle;Max_cycle;Signal;HPM_P1;HPM_P2
2023/03/20 00:01:29;;;;;;;13.25;4.55;;;;;;;10.80;100.00;99146.94;5072775;28;20135;-50
2023/03/20 00:03:56;;;;;;;13.80;5.25;;;;;;;10.77;100.00;99147.34;5072801;28;20559;-50
2023/03/20 00:06:27;;;;;;;14.60;4.75;;;;;;;10.88;100.00;99153.88;5056194;28;20406;-50
2023/03/20 00:08:54;;;;;;;7.20;3.45;;;;;;;10.88;100.00;99151.25;5073962;28;20405;-50
2023/03/20 00:11:40;;;;;;;6.07;3.13;;;;;;;10.91;100.00;99164.00;5073869;28;20024;-50
2023/03/20 00:14:09;;;;;;;6.15;2.92;;;;;;;11.01;100.00;99159.22;5074219;28;20036;-50
2023/03/20 00:16:38;;;;;;;3.95;2.60;;;;;;;11.02;100.00;99160.84;5073825;28;20029;-50
2023/03/20 00:19:05;;;;;;;7.18;2.50;;;;;;;11.03;100.00;99165.09;5072363;28;20020;-50
2023/03/20 00:21:31;;;;;;;5.88;2.35;;;;;;;11.07;100.00;99158.47;5073710;28;20024;-50
2023/03/20 00:23:58;;;;;;;6.15;3.72;;;;;;;11.06;100.00;99161.28;5072545;28;20131;-50
2023/03/20 00:26:31;;;;;;;4.35;3.13;;;;;;;11.12;100.00;99161.31;5073677;28;20033;-50
2023/03/20 00:28:57;;;;;;;8.13;5.18;;;;;;;11.12;100.00;99163.94;5073665;28;20032;-50
2023/03/20 00:31:29;;;;;;;3.88;2.13;;;;;;;11.07;100.00;99158.47;5073590;28;20416;-50
2023/03/20 00:33:57;;;;;;;2.75;2.10;;;;;;;11.06;100.00;99156.03;5073550;28;20021;-50
2023/03/20 00:36:23;;;;;;;8.57;3.03;;;;;;;11.03;100.00;99159.84;5073520;28;20102;-50
2023/03/20 00:38:50;;;;;;;6.57;3.13;;;;;;;10.92;100.00;99155.09;5073395;28;20058;-50
2023/03/20 00:41:26;;;;;;;18.98;4.15;;;;;;;10.92;100.00;99158.53;5073274;28;20025;-50
2023/03/20 00:44:08;;;;;;;6.72;3.83;;;;;;;10.88;100.00;99159.13;5073335;28;20060;-50
2023/03/20 00:46:38;;;;;;;6.13;2.90;;;;;;;10.75;100.00;99147.50;5056558;28;20028;-50
2023/03/20 00:49:03;;;;;;;4.50;2.92;;;;;;;10.83;100.00;99156.28;5072626;28;20494;-50
2023/03/20 00:51:29;;;;;;;8.30;3.55;;;;;;;10.82;100.00;99154.63;5093459;28;20048;-50
2023/03/20 00:53:55;;;;;;;7.13;3.17;;;;;;;10.79;100.00;99147.94;5093367;28;20035;-50
2023/03/20 00:56:32;;;;;;;3.67;2.90;;;;;;;10.83;100.00;99146.56;5093199;28;20088;-50
2023/03/20 00:59:01;;;;;;;7.13;3.13;;;;;;;10.86;100.00;99140.91;5075098;28;20383;-50
2023/03/20 01:01:27;;;;;;;4.75;3.83;;;;;;;10.89;100.00;99140.56;5074276;28;20028;-50
2023/03/20 01:03:53;;;;;;;6.88;3.83;;;;;;;10.82;100.00;99134.44;5074668;28;20135;-50
2023/03/20 01:06:18;;;;;;;5.18;3.13;;;;;;;10.80;100.00;99128.56;5093041;28;20095;-50
2023/03/20 01:08:45;;;;;;;8.63;4.65;;;;;;;10.74;100.00;99129.31;5093094;28;20020;-50
2023/03/20 01:11:12;;;;;;;9.32;5.50;;;;;;;10.73;100.00;99131.13;5093008;28;20034;-50
2023/03/20 01:13:39;;;;;;;14.35;7.72;;;;;;;10.72;100.00;99128.69;5074786;28;20027;-50
2023/03/20 01:16:17;;;;;;;7.78;4.47;;;;;;;10.77;100.00;99123.69;5093155;28;20025;-50
2023/03/20 01:18:42;;;;;;;8.20;5.30;;;;;;;10.56;100.00;99124.53;5059660;28;20115;-50
2023/03/20 01:21:08;;;;;;;7.80;4.15;;;;;;;10.43;100.00;99129.69;5074654;28;20581;-50
2023/03/20 01:23:34;;;;;;;5.88;4.40;;;;;;;10.32;100.00;99123.94;5074565;28;20039;-50
2023/03/20 01:25:59;;;;;;;7.60;4.35;;;;;;;10.29;100.00;99128.72;5092781;28;20016;-50
2023/03/20 01:28:31;;;;;;;4.93;4.05;;;;;;;10.36;100.00;99121.72;5057994;28;20481;-50
2023/03/20 01:30:56;;;;;;;5.50;4.38;;;;;;;10.40;100.00;99115.09;5092753;28;20023;-50
2023/03/20 01:33:25;;;;;;;8.65;4.30;;;;;;;10.57;100.00;99115.66;5092629;28;20024;-50
2023/03/20 01:35:51;;;;;;;11.93;10.35;;;;;;;10.67;100.00;99108.28;5092429;28;20020;-50
2023/03/20 01:38:24;;;;;;;11.00;7.97;;;;;;;10.66;100.00;99114.50;5074352;28;20038;-50
2023/03/20 01:40:53;;;;;;;8.23;6.03;;;;;;;10.68;100.00;99116.97;5092418;28;20024;-50
2023/03/20 01:43:22;;;;;;;7.10;4.03;;;;;;;10.71;100.00;99106.91;5092491;28;20031;-50
2023/03/20 01:46:13;;;;;;;7.90;4.18;;;;;;;10.68;100.00;99109.09;5092405;28;20497;-50
2023/03/20 01:48:51;;;;;;;5.93;4.85;;;;;;;10.63;100.00;99103.59;5092451;28;20024;-50
2023/03/20 01:51:21;;;;;;;7.05;4.20;;;;;;;10.51;100.00;99098.88;5073967;28;20047;-50
2023/03/20 01:53:51;;;;;;;10.25;4.40;;;;;;;10.59;100.00;99101.34;5074124;28;20043;-50
2023/03/20 01:56:19;;;;;;;7.43;3.95;;;;;;;10.65;100.00;99104.22;5074199;28;20073;-50
2023/03/20 01:58:50;;;;;;;6.55;3.50;;;;;;;10.67;100.00;99102.22;5092251;28;20071;-50
2023/03/20 02:01:17;;;;;;;4.90;3.30;;;;;;;10.67;100.00;99103.03;5092385;28;20397;-50
2023/03/20 02:03:47;;;;;;;9.75;5.10;;;;;;;10.71;100.00;99103.47;5092175;28;20027;-50
2023/03/20 02:06:13;;;;;;;4.93;3.78;;;;;;;10.71;100.00;99095.59;5092434;28;20397;-50
2023/03/20 02:08:44;;;;;;;10.80;4.80;;;;;;;10.62;100.00;99094.91;5074113;28;20028;-50
2023/03/20 02:11:11;;;;;;;12.45;4.63;;;;;;;10.62;100.00;99094.91;5092080;28;20485;-50
2023/03/20 02:13:38;;;;;;;5.97;4.07;;;;;;;10.66;100.00;99092.72;5091751;28;20522;-50
2023/03/20 02:16:11;;;;;;;9.93;4.53;;;;;;;10.63;100.00;99088.66;5092236;28;20035;-50
2023/03/20 02:18:39;;;;;;;24.30;8.77;;;;;;;10.63;100.00;99093.09;5073770;28;20493;-50
2023/03/20 02:21:10;;;;;;;7.85;4.80;;;;;;;10.66;100.00;99087.47;5091845;28;20073;-50
2023/03/20 02:24:09;;;;;;;5.75;3.80;;;;;;;10.66;100.00;99087.47;5091927;28;20028;-50
2023/03/20 02:27:00;;;;;;;6.45;3.50;;;;;;;10.72;100.00;99092.75;5091912;28;20099;-50
2023/03/20 02:29:47;;;;;;;4.93;3.55;;;;;;;10.76;100.00;99090.56;5074065;28;20034;-50
2023/03/20 02:32:47;;;;;;;8.48;3.70;;;;;;;10.77;100.00;99086.94;5075855;28;20558;-50
2023/03/20 02:35:50;;;;;;;8.30;3.72;;;;;;;10.79;100.00;99087.56;5091749;28;20064;-50
2023/03/20 02:38:34;;;;;;;7.00;3.47;;;;;;;10.71;100.00;99085.91;5091791;28;20026;-50
2023/03/20 02:41:11;;;;;;;6.78;4.30;;;;;;;10.70;100.00;99086.06;5073505;28;20024;-50
2023/03/20 02:44:01;;;;;;;6.63;4.28;;;;;;;10.77;100.00;99084.31;5091840;28;20509;-50
2023/03/20 02:47:01;;;;;;;7.78;3.30;;;;;;;10.92;100.00;99082.38;5073779;28;20461;-50
2023/03/20 02:49:48;;;;;;;5.05;3.47;;;;;;;11.00;100.00;99073.56;5091496;28;20052;-50
2023/03/20 02:52:43;;;;;;;7.45;4.10;;;;;;;10.99;100.00;99085.88;5091633;28;20032;-50
2023/03/20 02:55:38;;;;;;;8.48;3.90;;;;;;;10.94;100.00;99095.34;5073459;28;20036;-50
2023/03/20 02:58:14;;;;;;;6.72;4.38;;;;;;;10.83;100.00;99094.06;5073520;28;20511;-50
2023/03/20 03:00:55;;;;;;;9.32;8.43;;;;;;;10.63;100.00;99096.53;5091457;28;20502;-50
2023/03/20 03:03:43;;;;;;;8.00;7.15;;;;;;;10.55;100.00;99096.69;5091582;28;20032;-50
2023/03/20 03:06:23;;;;;;;7.03;4.55;;;;;;;10.57;100.00;99097.31;5091635;28;20558;-50
2023/03/20 03:08:58;;;;;;;8.38;3.65;;;;;;;10.69;100.00;99093.16;5091490;28;20092;-50
2023/03/20 03:11:25;;;;;;;6.55;3.63;;;;;;;10.84;100.00;99093.03;5091553;28;20137;-50
2023/03/20 03:13:56;;;;;;;7.90;3.70;;;;;;;10.88;100.00;99091.66;5091571;28;20401;-50
2023/03/20 03:16:29;;;;;;;9.45;5.05;;;;;;;10.94;100.00;99097.97;5091682;28;20032;-50
2023/03/20 03:19:06;;;;;;;12.93;5.05;;;;;;;10.96;100.00;99104.63;5073268;28;20119;-50
2023/03/20 03:21:34;;;;;;;7.00;4.32;;;;;;;10.96;100.00;99098.56;5073225;28;20408;-50
2023/03/20 03:24:01;;;;;;;7.78;4.50;;;;;;;11.05;100.00;99099.25;5091372;28;20185;-50
2023/03/20 03:26:33;;;;;;;7.47;4.32;;;;;;;11.12;100.00;99107.97;5093897;28;20031;-50
2023/03/20 03:29:05;;;;;;;6.25;3.35;;;;;;;11.18;100.00;99113.25;5095370;28;20382;-50
2023/03/20 03:31:31;;;;;;;6.32;3.47;;;;;;;11.27;100.00;99115.72;5095302;28;20032;-50
2023/03/20 03:34:00;;;;;;;7.80;3.17;;;;;;;11.29;100.00;99118.97;5076784;28;20055;-50
2023/03/20 03:36:51;;;;;;;8.35;3.33;;;;;;;11.27;100.00;99121.81;5094937;28;20024;-50
2023/03/20 03:39:32;;;;;;;4.97;3.20;;;;;;;11.19;100.00;99109.63;5083745;28;20042;-50
2023/03/20 03:42:01;;;;;;;12.30;4.85;;;;;;;11.11;100.00;99111.63;5094888;28;20028;-50
2023/03/20 03:44:36;;;;;;;10.07;4.30;;;;;;;11.05;100.00;99113.19;5094736;28;20035;-50
2023/03/20 03:47:13;;;;;;;13.20;4.78;;;;;;;10.97;99.93;99114.16;5094735;28;20059;-50
2023/03/20 03:49:45;;;;;;;13.63;4.70;;;;;;;11.05;100.00;99123.69;5072868;28;20134;-50
2023/03/20 03:52:18;;;;;;;12.98;6.43;;;;;;;11.14;100.00;99122.53;5073115;28;20565;-50
2023/03/20 03:54:49;;;;;;;15.00;7.38;;;;;;;11.27;100.00;99126.22;5074617;28;20410;-50
2023/03/20 03:57:19;;;;;;;20.75;8.52;;;;;;;11.40;100.00;99121.06;5074197;28;20017;-50
2023/03/20 03:59:49;;;;;;;9.82;3.80;;;;;;;11.48;100.00;99125.34;5072774;28;20032;-50
2023/03/20 04:02:18;;;;;;;7.90;4.22;;;;;;;11.58;100.00;99128.41;5074077;28;20028;-50
2023/03/20 04:04:48;;;;;;;9.60;3.60;;;;;;;11.63;100.00;99127.81;5072891;28;20387;-50
2023/03/20 04:07:14;;;;;;;3.70;2.58;;;;;;;11.67;100.00;99137.78;5074345;28;20108;-49
2023/03/20 04:09:40;;;;;;;5.25;2.38;;;;;;;11.68;100.00;99144.63;5072755;28;20029;-50
2023/03/20 04:12:19;;;;;;;5.45;2.13;;;;;;;11.67;100.00;99148.28;5073977;28;20498;-50
2023/03/20 04:14:44;;;;;;;10.35;3.08;;;;;;;11.68;100.00;99149.09;5073961;28;20490;-50
2023/03/20 04:17:10;;;;;;;7.30;2.10;;;;;;;11.67;99.96;99142.19;5073725;28;20028;-49
2023/03/20 04:19:35;;;;;;;6.78;3.40;;;;;;;11.65;99.44;99147.69;5073980;28;20020;-50
2023/03/20 04:22:01;;;;;;;5.28;2.47;;;;;;;11.67;99.59;99145.66;5055774;28;20026;-50
2023/03/20 04:24:27;;;;;;;7.78;2.70;;;;;;;11.66;99.46;99137.97;5073745;28;20169;-50
2023/03/20 04:26:53;;;;;;;6.82;3.30;;;;;;;11.52;99.31;99145.78;5055636;28;20412;-50
2023/03/20 04:29:18;;;;;;;10.85;4.07;;;;;;;11.44;99.38;99140.69;5073495;28;20100;-50
2023/03/20 04:31:44;;;;;;;7.00;2.58;;;;;;;11.38;99.06;99149.34;5073469;28;20048;-50
2023/03/20 04:34:09;;;;;;;3.67;1.98;;;;;;;11.28;99.67;99151.50;5073507;28;20063;-50
2023/03/20 04:36:35;;;;;;;5.60;2.78;;;;;;;11.14;99.90;99150.63;5055349;28;20528;-50
2023/03/20 04:39:00;;;;;;;12.30;3.00;;;;;;;11.02;99.91;99150.34;5073412;28;20033;-50
2023/03/20 04:41:26;;;;;;;7.10;2.42;;;;;;;10.92;100.00;99145.41;5073319;28;20031;-50
2023/03/20 04:43:52;;;;;;;10.63;3.17;;;;;;;10.79;99.75;99138.25;5071993;28;20103;-50
2023/03/20 04:46:17;;;;;;;6.13;2.35;;;;;;;10.67;98.96;99137.16;5071986;28;20021;-50
2023/03/20 04:48:43;;;;;;;4.95;1.70;;;;;;;10.57;99.02;99137.47;5073261;28;20513;-50
2023/03/20 04:51:10;;;;;;;6.00;2.00;;;;;;;10.52;99.42;99139.03;5091363;28;20039;-50
2023/03/20 04:53:36;;;;;;;10.85;5.63;;;;;;;10.46;99.82;99139.78;5075241;28;20020;-50
2023/03/20 04:56:01;;;;;;;5.57;3.13;;;;;;;10.34;98.96;99145.56;5093580;28;20035;-50
2023/03/20 04:58:27;;;;;;;4.60;1.88;;;;;;;10.26;98.89;99150.06;5093346;28;20062;-50
2023/03/20 05:00:52;;;;;;;4.35;1.90;;;;;;;10.19;99.07;99142.94;5093107;28;20024;-50
2023/03/20 05:03:18;;;;;;;11.13;4.95;;;;;;;10.20;99.81;99144.56;5075024;28;20108;-50
2023/03/20 05:05:44;;;;;;;10.32;4.75;;;;;;;10.24;99.89;99149.44;5093197;28;20028;-50
2023/03/20 05:08:09;;;;;;;7.82;2.13;;;;;;;10.29;100.00;99157.56;5075007;28;20102;-50
2023/03/20 05:10:35;;;;;;;13.57;2.53;;;;;;;10.32;100.00;99149.34;5093072;28;20117;-50
2023/03/20 05:13:01;;;;;;;9.68;3.70;;;;;;;10.28;99.46;99143.66;5093079;28;20093;-50
2023/03/20 05:15:26;;;;;;;11.90;2.30;;;;;;;10.24;98.47;99146.81;5074851;28;20481;-50
2023/03/20 05:17:52;;;;;;;2.75;1.70;;;;;;;10.20;98.05;99144.56;5074795;28;20020;-50
2023/03/20 05:20:18;;;;;;;8.70;2.58;;;;;;;10.22;98.40;99148.81;5074617;28;20119;-50
2023/03/20 05:22:43;;;;;;;7.43;2.67;;;;;;;10.17;98.49;99152.81;5092823;28;20392;-50
2023/03/20 05:25:09;;;;;;;5.38;2.20;;;;;;;10.10;98.89;99151.94;5092853;28;20572;-50
2023/03/20 05:27:35;;;;;;;8.15;3.13;;;;;;;10.06;98.42;99150.69;5092724;28;20016;-50
2023/03/20 05:30:00;;;;;;;15.98;7.65;;;;;;;10.08;98.84;99148.69;5092719;28;20089;-50
2023/03/20 05:32:26;;;;;;;9.88;4.25;;;;;;;10.04;98.13;99162.34;5074517;28;20111;-50
2023/03/20 05:34:51;;;;;;;12.32;4.10;;;;;;;9.96;98.21;99158.84;5057769;28;20020;-50
2023/03/20 05:37:17;;;;;;;11.80;4.40;;;;;;;9.87;97.93;99157.31;5092618;28;20024;-50
2023/03/20 05:39:42;;;;;;;18.95;6.88;;;;;;;9.66;97.24;99158.09;5074539;28;20047;-50
2023/03/20 05:42:08;;;;;;;49.80;28.42;;;;;;;9.36;97.26;99165.94;5092842;28;20020;-50
2023/03/20 05:44:34;;;;;;;17.13;4.43;;;;;;;9.24;98.34;99166.59;5092494;28;20516;-50
2023/03/20 05:46:59;;;;;;;27.13;5.32;;;;;;;9.04;98.48;99167.09;5092598;28;20512;-50
2023/03/20 05:49:25;;;;;;;10.02;3.88;;;;;;;9.04;99.54;99174.16;5091903;28;20044;-50
2023/03/20 05:51:50;;;;;;;11.20;3.33;;;;;;;9.06;100.00;99169.53;5092454;28;20040;-50
2023/03/20 05:54:16;;;;;;;15.32;4.40;;;;;;;9.15;100.00;99169.25;5092401;28;20505;-50
2023/03/20 05:56:42;;;;;;;13.93;3.20;;;;;;;9.19;100.00;99172.34;5074208;28;20020;-50
2023/03/20 05:59:07;;;;;;;9.40;2.83;;;;;;;9.28;100.00;99173.91;5092426;28;20016;-50
2023/03/20 06:01:33;;;;;;;15.82;5.43;;;;;;;9.33;100.00;99182.00;5092275;28;20031;-50
2023/03/20 06:03:59;;;;;;;9.38;5.45;;;;;;;9.48;100.00;99183.84;5074125;28;20115;-50
2023/03/20 06:06:24;;;;;;;9.35;3.28;;;;;;;9.73;100.00;99193.03;5092500;28;20020;-50
2023/03/20 06:08:50;;;;;;;8.35;2.60;;;;;;;9.92;99.33;99188.22;5073987;28;20024;-50
2023/03/20 06:11:16;;;;;;;8.55;3.10;;;;;;;9.98;97.82;99184.88;5074186;28;20107;-50
2023/03/20 06:13:42;;;;;;;12.40;3.05;;;;;;;10.10;97.06;99193.06;5073881;28;20081;-50
2023/03/20 06:16:08;;;;;;;9.68;2.55;;;;;;;10.19;97.21;99199.84;5092013;28;20016;-50
2023/03/20 06:18:33;;;;;;;7.88;2.00;;;;;;;10.18;97.30;99196.41;5073973;28;20032;-50
2023/03/20 06:21:00;;;;;;;7.55;2.55;;;;;;;10.21;97.37;99197.84;5091903;28;20020;-50
2023/03/20 06:23:26;;;;;;;13.10;10.02;;;;;;;10.19;96.76;99194.59;5091907;28;20385;-50
2023/03/20 06:25:52;;;;;;;10.63;5.82;;;;;;;10.26;97.56;99192.03;5092252;28;20024;-50
2023/03/20 06:28:17;;;;;;;5.15;3.00;;;;;;;10.39;97.94;99194.84;5091964;28;20020;-50
2023/03/20 06:30:43;;;;;;;7.90;2.45;;;;;;;10.44;97.96;99191.63;5073673;28;20123;-50
2023/03/20 06:33:09;;;;;;;18.70;3.25;;;;;;;10.39;97.86;99184.34;5073808;28;20026;-50
2023/03/20 06:35:35;;;;;;;10.27;3.15;;;;;;;10.22;96.76;99185.53;5073755;28;20024;-50
2023/03/20 06:38:01;;;;;;;5.68;2.00;;;;;;;10.17;97.29;99188.72;5073766;28;20054;-50
2023/03/20 06:40:27;;;;;;;8.25;2.42;;;;;;;10.36;98.46;99187.31;5073587;28;20024;-50
2023/03/20 06:42:54;;;;;;;6.68;2.10;;;;;;;10.54;97.76;99190.34;5073595;28;20115;-50
2023/03/20 06:45:21;;;;;;;7.10;2.30;;;;;;;10.60;97.01;99188.75;5091688;28;20028;-50
2023/03/20 06:47:47;;;;;;;8.07;2.53;;;;;;;10.91;98.09;99191.06;5091771;28;20081;-50
2023/03/20 06:50:13;;;;;;;5.93;2.22;;;;;;;11.29;98.31;99192.53;5091470;28;20460;-50
2023/03/20 06:52:39;;;;;;;14.13;3.65;;;;;;;11.34;97.24;99190.97;5073478;28;20032;-50
2023/03/20 06:55:06;;;;;;;61.35;53.25;;;;;;;11.40;97.54;99195.44;5073438;28;20028;-50
2023/03/20 06:57:32;;;;;;;15.18;5.30;;;;;;;11.60;96.94;99190.31;5073512;28;20028;-50
2023/03/20 06:59:59;;;;;;;9.82;4.50;;;;;;;11.75;95.07;99189.34;5073702;28;20028;-50
2023/03/20 07:02:25;;;;;;;7.75;3.60;;;;;;;11.69;94.15;99193.59;5077309;28;20024;-50
2023/03/20 07:04:51;;;;;;;6.32;2.42;;;;;;;11.53;92.63;99204.41;5077409;28;20113;-50
2023/03/20 07:07:18;;;;;;;6.43;2.67;;;;;;;11.42;93.94;99197.88;5095569;28;20435;-50
2023/03/20 07:09:44;;;;;;;278.83;252.02;;;;;;;11.37;93.17;99202.91;5095411;28;20024;-50
2023/03/20 07:12:14;;;;;;;15.23;10.63;;;;;;;11.47;94.17;99205.19;5095371;28;20077;-50
2023/03/20 07:14:41;;;;;;;7.43;3.35;;;;;;;11.79;95.82;99206.38;5077119;28;20024;-50
2023/03/20 07:17:08;;;;;;;15.75;6.35;;;;;;;11.98;95.96;99196.97;5077048;28;20032;-50
2023/03/20 07:19:35;;;;;;;9.73;3.45;;;;;;;11.96;94.51;99199.00;5076970;28;20035;-50
2023/03/20 07:22:03;;;;;;;7.88;2.78;;;;;;;11.91;94.70;99196.97;5060708;28;20081;-50
2023/03/20 07:24:30;;;;;;;13.13;4.47;;;;;;;11.89;94.57;99203.41;5095169;28;20444;-50
2023/03/20 07:26:56;;;;;;;5.38;2.35;;;;;;;11.92;95.30;99203.03;5095092;28;20024;-50
2023/03/20 07:29:21;;;;;;;11.55;3.70;;;;;;;11.87;94.09;99198.34;5076822;28;20085;-50
2023/03/20 07:31:47;;;;;;;12.00;4.20;;;;;;;11.92;93.83;99209.09;5095019;28;20027;-50
2023/03/20 07:34:12;;;;;;;7.47;3.35;;;;;;;12.07;93.46;99208.94;5076826;28;20071;-50
2023/03/20 07:36:40;;;;;;;5.68;2.80;;;;;;;12.27;94.13;99208.19;5060070;28;20557;-50
2023/03/20 07:39:05;;;;;;;9.05;3.08;;;;;;;12.42;91.75;99211.50;5094778;28;20532;-49
2023/03/20 07:41:31;;;;;;;7.32;3.25;;;;;;;12.41;91.49;99214.31;5076511;28;20036;-50
2023/03/20 07:43:57;;;;;;;8.43;3.22;;;;;;;12.54;91.95;99212.53;5094832;28;20024;-50
2023/03/20 07:46:22;;;;;;;8.50;3.17;;;;;;;12.59;90.59;99212.72;5094796;28;20031;-49
2023/03/20 07:48:48;;;;;;;11.60;9.70;;;;;;;12.54;90.40;99214.34;5094748;28;20024;-50
2023/03/20 07:51:14;;;;;;;13.40;4.72;;;;;;;12.64;90.93;99208.69;5094350;28;20047;-50
2023/03/20 07:53:39;;;;;;;9.73;3.72;;;;;;;13.03;91.33;99201.81;5094593;28;20504;-50
2023/03/20 07:56:05;;;;;;;9.35;3.25;;;;;;;13.24;89.49;99211.31;5076373;28;20032;-50
2023/03/20 07:58:31;;;;;;;6.28;3.63;;;;;;;13.33;88.01;99210.13;5094537;28;20519;-50
2023/03/20 08:00:57;;;;;;;9.48;3.13;;;;;;;13.46;87.74;99217.22;5094399;28;20062;-50
2023/03/20 08:03:23;;;;;;;5.80;2.30;;;;;;;13.53;86.74;99218.81;5076268;28;20039;-50
2023/03/20 08:05:49;;;;;;;8.65;2.85;;;;;;;13.49;85.95;99216.81;5094347;28;20390;-50
2023/03/20 08:08:14;;;;;;;8.82;3.15;;;;;;;13.58;87.48;99218.19;5094355;28;20504;-50
2023/03/20 08:10:40;;;;;;;9.73;4.45;;;;;;;13.74;84.72;99222.22;5075719;28;20173;-50
2023/03/20 08:13:06;;;;;;;10.52;4.53;;;;;;;13.88;82.55;99212.44;5094142;28;20452;-50
2023/03/20 08:15:31;;;;;;;10.43;3.70;;;;;;;14.61;83.87;99220.03;5094165;28;20487;-50
2023/03/20 08:17:57;;;;;;;8.13;4.13;;;;;;;15.16;82.36;99224.69;5094176;28;20024;-49
2023/03/20 08:20:23;;;;;;;15.10;4.43;;;;;;;15.43;82.46;99221.78;5093925;28;20062;-50
2023/03/20 08:22:49;;;;;;;10.15;2.88;;;;;;;15.61;79.86;99221.81;5094092;28;20050;-50
2023/03/20 08:25:16;;;;;;;6.55;3.00;;;;;;;15.68;79.44;99227.84;5094021;28;20540;-50
2023/03/20 08:27:42;;;;;;;9.38;2.78;;;;;;;15.76;79.96;99226.78;5094002;28;20034;-50
2023/03/20 08:30:08;;;;;;;8.63;2.95;;;;;;;15.81;78.14;99226.13;5075746;28;20057;-50
2023/03/20 08:32:35;;;;;;;7.70;3.00;;;;;;;15.78;77.61;99236.13;5094187;28;20451;-50
2023/03/20 08:35:01;;;;;;;5.88;2.55;;;;;;;15.60;77.21;99227.34;5093926;28;20032;-50
2023/03/20 08:37:27;;;;;;;6.10;2.95;;;;;;;15.52;76.89;99233.72;5093788;28;20074;-50
2023/03/20 08:39:52;;;;;;;6.45;2.58;;;;;;;15.70;76.59;99241.66;5075500;28;20048;-50
2023/03/20 08:42:18;;;;;;;8.13;2.20;;;;;;;15.97;74.32;99246.69;5075706;28;20034;-48
2023/03/20 08:44:44;;;;;;;7.53;3.03;;;;;;;16.78;72.82;99232.19;5075428;28;20371;-48
2023/03/20 08:47:10;;;;;;;9.70;2.65;;;;;;;17.21;71.09;99232.94;5075907;28;20024;-48
2023/03/20 08:49:36;;;;;;;4.95;2.28;;;;;;;17.24;69.96;99240.44;5093284;28;20119;-48
2023/03/20 08:52:03;;;;;;;11.32;3.38;;;;;;;17.37;71.17;99239.41;5093527;28;20497;-48
2023/03/20 08:54:29;;;;;;;11.98;3.55;;;;;;;17.60;71.99;99237.78;5075369;28;20022;-48
2023/03/20 08:56:55;;;;;;;11.15;3.17;;;;;;;17.63;70.29;99240.78;5093311;28;20027;-48
2023/03/20 08:59:21;;;;;;;5.60;2.67;;;;;;;17.24;69.32;99240.44;5093243;28;20099;-48
2023/03/20 09:01:47;;;;;;;8.60;2.80;;;;;;;16.99;71.45;99239.84;5093228;28;20069;-48
2023/03/20 09:04:13;;;;;;;9.65;2.80;;;;;;;16.85;71.32;99241.91;5075062;28;20028;-48
2023/03/20 09:06:39;;;;;;;13.68;3.55;;;;;;;16.56;72.32;99244.34;5093397;28;20026;-48
2023/03/20 09:09:06;;;;;;;29.08;3.95;;;;;;;16.36;72.92;99256.00;5093188;28;20081;-48
2023/03/20 09:11:32;;;;;;;15.57;3.60;;;;;;;16.34;73.70;99251.97;5074837;28;20535;-48
2023/03/20 09:13:58;;;;;;;25.42;4.53;;;;;;;16.41;73.11;99255.31;5093069;28;20031;-48
2023/03/20 09:16:24;;;;;;;22.27;3.30;;;;;;;16.57;73.89;99252.03;5074763;28;20032;-48
2023/03/20 09:18:50;;;;;;;31.50;3.95;;;;;;;16.54;73.35;99252.50;5074795;28;20482;-48
2023/03/20 09:21:16;;;;;;;31.38;4.78;;;;;;;16.24;72.92;99256.97;5092819;28;20032;-48
2023/03/20 09:23:41;;;;;;;10.57;3.58;;;;;;;15.85;72.03;99264.34;5073966;28;20024;-48
2023/03/20 09:26:07;;;;;;;8.60;2.75;;;;;;;15.54;73.28;99258.13;5092838;28;20504;-48
2023/03/20 09:28:33;;;;;;;10.98;2.88;;;;;;;15.34;74.43;99264.41;5074592;28;20043;-48
2023/03/20 09:30:59;;;;;;;8.60;2.40;;;;;;;15.35;74.71;99268.66;5092979;28;20016;-48
2023/03/20 09:33:25;;;;;;;9.07;2.63;;;;;;;15.49;73.99;99264.06;5092689;28;20035;-48
2023/03/20 09:35:51;;;;;;;13.10;2.90;;;;;;;15.67;74.48;99263.25;5074402;28;20016;-48
2023/03/20 09:38:17;;;;;;;6.72;2.60;;;;;;;15.74;74.64;99268.53;5092629;28;20024;-48
2023/03/20 09:41:02;;;;;;;8.98;3.03;;;;;;;15.85;74.08;99267.00;5092785;28;20070;-48
2023/03/20 09:44:05;;;;;;;9.00;3.20;;;;;;;15.91;73.85;99272.22;5092597;28;20051;-48
2023/03/20 09:46:36;;;;;;;7.57;2.60;;;;;;;16.43;74.04;99271.00;5092426;28;20042;-48
2023/03/20 09:49:36;;;;;;;10.70;2.65;;;;;;;16.82;68.18;99271.50;5092223;28;20082;-48
2023/03/20 09:52:14;;;;;;;6.07;2.55;;;;;;;16.70;70.66;99272.25;5074230;28;20073;-48
2023/03/20 09:54:44;;;;;;;6.35;2.70;;;;;;;16.55;71.75;99275.31;5092406;28;20412;-48
2023/03/20 09:57:21;;;;;;;9.63;3.10;;;;;;;16.48;71.41;99279.91;5092199;28;20024;-48
2023/03/20 09:59:49;;;;;;;7.28;2.50;;;;;;;16.41;69.79;99283.66;5074101;28;20024;-48
2023/03/20 10:02:23;;;;;;;5.68;2.15;;;;;;;16.85;68.67;99276.38;5073934;28;20067;-47
2023/03/20 10:04:53;;;;;;;4.55;1.77;;;;;;;18.21;66.36;99270.97;5092269;28;20055;-47
2023/03/20 10:07:19;;;;;;;7.68;2.25;;;;;;;19.61;62.77;99270.38;5092185;28;20070;-48
2023/03/20 10:09:45;;;;;;;5.13;1.98;;;;;;;19.88;58.90;99275.03;5074015;28;20442;-47
2023/03/20 10:12:42;;;;;;;4.40;1.60;;;;;;;19.29;57.34;99273.66;5091957;28;20020;-47
2023/03/20 10:15:27;;;;;;;5.35;2.00;;;;;;;18.42;57.16;99272.16;5092054;28;20020;-47
2023/03/20 10:18:04;;;;;;;9.75;2.03;;;;;;;17.80;60.53;99275.38;5092056;28;20515;-47
2023/03/20 10:20:47;;;;;;;9.52;2.10;;;;;;;17.74;61.99;99277.13;5092110;28;20119;-48
2023/03/20 10:23:32;;;;;;;3.42;1.35;;;;;;;17.78;63.78;99277.47;5073865;28;20032;-47
2023/03/20 10:26:17;;;;;;;6.57;1.70;;;;;;;17.62;61.16;99276.31;5073799;28;20507;-47
2023/03/20 10:28:49;;;;;;;2.78;1.50;;;;;;;18.09;63.28;99281.59;5073808;28;20138;-47
2023/03/20 10:31:44;;;;;;;4.13;1.67;;;;;;;20.92;59.22;99267.91;5091718;28;20122;-46
2023/03/20 10:34:45;;;;;;;5.00;1.75;;;;;;;21.98;53.13;99274.25;5089329;28;20643;-46
2023/03/20 10:37:20;;;;;;;9.75;2.35;;;;;;;21.71;58.68;99271.69;5077852;28;20040;-46
2023/03/20 10:40:03;;;;;;;5.00;1.88;;;;;;;21.44;60.51;99272.63;5096065;28;20035;-46
2023/03/20 10:42:41;;;;;;;5.15;1.75;;;;;;;20.73;56.18;99273.63;5095981;28;20047;-46
2023/03/20 10:45:29;;;;;;;7.53;2.20;;;;;;;19.98;57.19;99277.84;5077810;28;20032;-46
2023/03/20 10:47:58;;;;;;;6.88;1.90;;;;;;;19.46;57.74;99286.16;5078055;28;20020;-46
2023/03/20 10:50:45;;;;;;;6.38;2.15;;;;;;;18.97;54.13;99281.38;5077382;28;20052;-45
2023/03/20 10:53:24;;;;;;;14.23;2.50;;;;;;;18.45;59.93;99273.50;5077484;28;20078;-45
2023/03/20 10:55:50;;;;;;;8.25;2.50;;;;;;;18.15;62.61;99283.31;5077538;28;20036;-48
2023/03/20 10:58:24;;;;;;;5.10;1.67;;;;;;;18.02;62.16;99266.84;5095596;28;20028;-47
2023/03/20 11:00:53;;;;;;;9.90;2.10;;;;;;;18.26;66.07;99268.38;5077383;28;20020;-48
2023/03/20 11:03:22;;;;;;;7.68;1.70;;;;;;;19.53;64.41;99263.63;5077444;28;20048;-48
2023/03/20 11:05:56;;;;;;;4.30;1.70;;;;;;;21.41;62.21;99262.44;5077333;28;20546;-48
2023/03/20 11:08:24;;;;;;;5.55;2.20;;;;;;;23.32;57.87;99251.19;5095575;28;20051;-46
2023/03/20 11:11:01;;;;;;;3.50;1.80;;;;;;;24.41;53.15;99247.91;5077287;28;20028;-46
2023/03/20 11:13:37;;;;;;;3.83;1.77;;;;;;;25.09;53.05;99243.63;5060770;28;20393;-46
2023/03/20 11:16:23;;;;;;;4.72;1.95;;;;;;;25.85;51.44;99235.91;5095639;28;20046;-46
2023/03/20 11:18:51;;;;;;;4.75;1.70;;;;;;;25.36;51.87;99243.16;5079242;28;20028;-46
2023/03/20 11:21:26;;;;;;;6.65;2.08;;;;;;;24.16;52.65;99250.72;5095216;28;20512;-46
2023/03/20 11:23:51;;;;;;;;;;;;;;;23.14;52.71;99239.22;5095680;28;20020;-46
2023/03/20 11:26:31;;;;;;;3.42;1.90;;;;;;;22.42;52.04;99241.81;5076850;28;19908;-46
2023/03/20 11:28:58;;;;;;;8.63;2.20;;;;;;;22.61;57.45;99246.66;5076884;28;20523;-46
2023/03/20 11:31:29;;;;;;;4.32;1.73;;;;;;;24.04;53.79;99241.09;5076822;28;20032;-46
2023/03/20 11:34:13;;;;;;;2.50;1.60;;;;;;;25.31;51.61;99224.38;5095060;28;20161;-46
2023/03/20 11:36:40;;;;;;;5.28;1.50;;;;;;;25.57;52.64;99221.44;5095009;28;20479;-46
2023/03/20 11:39:13;;;;;;;11.20;2.42;;;;;;;26.11;49.92;99215.66;5094832;28;20024;-46
2023/03/20 11:41:59;;;;;;;14.77;1.70;;;;;;;25.52;48.60;99214.25;5076898;28;20020;-46
2023/03/20 11:44:30;;;;;;;2.88;1.63;;;;;;;24.86;53.26;99221.81;5094901;28;20036;-47